Time;durP1;ratioP1;P1;durP2;ratioP2;P2;SDS_P1;SDS_P2;PMS_P1;PMS_P2;Temp;Humidity;BMP_temperature;BMP_pressure;BME280_temperature;BME280_humidity;BME280_pressure;Samples;Min_cycle;Max_cycle;Signal;HPM_P1;HPM_P2
2021/01/09 00:00:52;;;;;;;;;;;;;;;-0.30;96.75;99436.83;1758116;81;20284;-66
2021/01/09 00:03:18;;;;;;;;;;;;;;;-0.30;96.71;99435.55;1754976;80;20546;-66
2021/01/09 00:05:45;;;;;;;;;;;;;;;-0.32;96.63;99432.13;1760186;80;21484;-66
2021/01/09 00:08:12;;;;;;;;;;;;;;;-0.34;96.66;99435.13;1770270;79;20915;-66
2021/01/09 00:10:39;;;;;;;;;;;;;;;-0.33;96.77;99434.29;1755420;80;20146;-66
2021/01/09 00:13:06;;;;;;;;;;;;;;;-0.33;96.70;99436.86;1749879;81;20785;-66
2021/01/09 00:15:33;;;;;;;;;;;;;;;-0.37;96.62;99431.31;1758498;80;20135;-66
2021/01/09 00:17:59;;;;;;;;;;;;;;;-0.38;96.63;99441.16;1758199;80;22186;-66
2021/01/09 00:20:26;;;;;;;;;;;;;;;-0.38;96.73;99433.47;1759489;80;20172;-66
2021/01/09 00:22:53;;;;;;;;;;;;;;;-0.34;96.87;99435.57;1758764;80;20701;-66
2021/01/09 00:25:20;;;;;;;;;;;;;;;-0.28;97.05;99435.11;1757418;80;20216;-66
2021/01/09 00:27:47;;;;;;;;;;;;;;;-0.20;97.15;99436.75;1755655;80;20628;-67
2021/01/09 00:30:16;;;;;;;;;;;;;;;-0.15;97.18;99437.56;1760324;80;21192;-66
2021/01/09 00:32:42;;;;;;;;;;;;;;;-0.14;97.08;99437.56;1757718;81;20173;-66
2021/01/09 00:35:11;;;;;;;;;;;;;;;-0.20;96.77;99439.31;1749691;80;20149;-66
2021/01/09 00:37:38;;;;;;;;;;;;;;;-0.23;96.84;99439.75;1758868;81;20224;-66
2021/01/09 00:40:07;;;;;;;;;;;;;;;-0.27;96.65;99431.67;1751430;81;20141;-67
2021/01/09 00:45:26;;;;;;;;;;;;;;;-0.39;96.50;99436.91;1689960;83;20525;-66
2021/01/09 00:47:53;;;;;;;;;;;;;;;-0.39;96.59;99434.34;1695435;83;20920;-66
2021/01/09 00:50:20;;;;;;;;;;;;;;;-0.41;96.57;99440.34;1693293;83;20202;-67
2021/01/09 00:52:47;;;;;;;;;;;;;;;-0.42;96.58;99442.06;1688363;83;20525;-66
2021/01/09 00:55:15;;;;;;;;;;;;;;;-0.42;96.58;99440.78;1688363;83;22182;-66
2021/01/09 00:57:41;;;;;;;;;;;;;;;-0.44;96.55;99443.78;1687915;83;20172;-66
2021/01/09 01:00:30;;;;;;;;;;;;;;;-0.46;96.59;99437.80;1688338;83;20165;-67
2021/01/09 01:02:56;;;;;;;;;;;;;;;-0.46;96.62;99440.37;1700843;83;20226;-67
2021/01/09 01:05:24;;;;;;;;;;;;;;;-0.46;96.58;99442.93;1707625;82;20322;-66
2021/01/09 01:07:51;;;;;;;;;;;;;;;-0.46;96.57;99441.65;1703692;83;21199;-66
2021/01/09 01:10:17;;;;;;;;;;;;;;;-0.48;96.58;99447.21;1699606;83;20219;-66
2021/01/09 01:12:44;;;;;;;;;;;;;;;-0.48;96.62;99442.08;1705074;83;20175;-66
2021/01/09 01:15:12;;;;;;;;;;;;;;;-0.49;96.64;99445.52;1707413;83;20994;-66
2021/01/09 01:17:39;;;;;;;;;;;;;;;-0.51;96.57;99448.08;1708593;82;20288;-67
2021/01/09 01:20:07;;;;;;;;;;;;;;;-0.55;96.51;99450.70;1705662;83;21400;-66
2021/01/09 01:22:33;;;;;;;;;;;;;;;-0.56;96.62;99452.82;1723761;81;20147;-67
2021/01/09 01:25:00;;;;;;;;;;;;;;;-0.53;96.87;99452.83;1705600;82;20210;-66
2021/01/09 01:27:27;;;;;;;;;;;;;;;-0.59;96.60;99451.56;1720745;82;20199;-66
2021/01/09 01:29:54;;;;;;;;;;;;;;;-0.60;96.76;99447.30;1707680;82;20498;-66
2021/01/09 01:32:21;;;;;;;;;;;;;;;-0.63;96.66;99449.89;1721730;81;21195;-66
2021/01/09 01:34:48;;;;;;;;;;;;;;;-0.62;96.82;99443.89;1711798;82;20152;-66
2021/01/09 01:37:15;;;;;;;;;;;;;;;-0.56;97.01;99446.01;1719182;82;20156;-67
2021/01/09 01:39:42;;;;;;;;;;;;;;;-0.52;96.98;99454.52;1709207;82;20324;-67
2021/01/09 01:42:08;;;;;;;;;;;;;;;-0.60;96.65;99455.00;1722072;81;20195;-66
2021/01/09 01:44:35;;;;;;;;;;;;;;;-0.69;96.48;99456.76;1717749;82;21205;-66
2021/01/09 01:47:02;;;;;;;;;;;;;;;-0.76;96.40;99458.08;1693186;83;20134;-66
2021/01/09 01:49:29;;;;;;;;;;;;;;;-0.86;96.32;99457.28;1720434;82;20185;-66
2021/01/09 01:51:56;;;;;;;;;;;;;;;-0.92;96.36;99450.92;1712984;82;20602;-66
2021/01/09 01:54:23;;;;;;;;;;;;;;;-1.01;96.36;99445.81;1719459;81;20227;-67
2021/01/09 01:56:54;;;;;;;;;;;;;;;-1.04;96.56;99453.52;1690504;83;21924;-66
2021/01/09 01:59:21;;;;;;;;;;;;;;;-1.04;96.64;99453.52;1714436;82;20968;-66
2021/01/09 02:01:50;;;;;;;;;;;;;;;-1.09;96.58;99452.69;1712998;82;20224;-66
2021/01/09 02:04:18;;;;;;;;;;;;;;;-1.10;96.66;99440.74;1728982;81;20490;-66
2021/01/09 02:06:46;;;;;;;;;;;;;;;-1.04;96.98;99440.70;1767233;80;20312;-66
2021/01/09 02:09:22;;;;;;;;;;;;;;;-1.01;96.98;99440.69;1764114;80;21967;-66
2021/01/09 02:12:05;;;;;;;;;;;;;;;-1.00;96.96;99442.41;1763856;80;20232;-66
2021/01/09 02:14:44;;;;;;;;;;;;;;;-1.02;96.81;99446.69;1759434;80;20424;-66
2021/01/09 02:17:12;;;;;;;;;;;;;;;-1.10;96.64;99452.27;1762914;80;20280;-66
2021/01/09 02:19:40;;;;;;;;;;;;;;;-1.22;96.59;99446.34;1764850;80;20513;-66
2021/01/09 02:22:12;;;;;;;;;;;;;;;-1.29;96.68;99451.05;1765524;80;21360;-66
2021/01/09 02:24:40;;;;;;;;;;;;;;;-1.32;96.80;99444.66;1765300;80;20292;-66
2021/01/09 02:27:07;;;;;;;;;;;;;;;-1.32;96.93;99444.66;1766109;80;20274;-66
2021/01/09 02:29:57;;;;;;;;;;;;;;;-1.32;96.95;99447.22;1765521;80;20244;-66
2021/01/09 02:32:28;;;;;;;;;;;;;;;-1.32;97.00;99454.91;1756957;80;20304;-67
2021/01/09 02:34:57;;;;;;;;;;;;;;;-1.33;96.95;99449.38;1769695;80;21615;-66
2021/01/09 02:37:26;;;;;;;;;;;;;;;-1.36;96.96;99459.63;1759828;80;20194;-66
2021/01/09 02:39:54;;;;;;;;;;;;;;;-1.33;97.11;99454.50;1764646;80;20261;-66
2021/01/09 02:42:22;;;;;;;;;;;;;;;-1.35;97.03;99454.92;1764086;81;20366;-66
2021/01/09 02:44:52;;;;;;;;;;;;;;;-1.35;97.04;99451.92;1762687;80;20323;-66
2021/01/09 02:47:19;;;;;;;;;;;;;;;-1.35;97.03;99458.33;1764999;80;21141;-66
2021/01/09 02:49:46;;;;;;;;;;;;;;;-1.34;97.14;99463.05;1768738;80;20780;-66
2021/01/09 02:52:13;;;;;;;;;;;;;;;-1.29;97.25;99461.30;1765005;80;20155;-66
2021/01/09 02:54:40;;;;;;;;;;;;;;;-1.21;97.39;99459.56;1764642;80;20807;-66
2021/01/09 02:57:07;;;;;;;;;;;;;;;-1.19;97.19;99465.55;1764848;79;20139;-66
2021/01/09 02:59:33;;;;;;;;;;;;;;;-1.26;96.93;99467.72;1759817;80;22788;-66
2021/01/09 03:02:00;;;;;;;;;;;;;;;-1.33;96.87;99463.89;1761865;80;20188;-66
2021/01/09 03:04:27;;;;;;;;;;;;;;;-1.37;96.95;99461.34;1765409;80;20350;-66
2021/01/09 03:06:54;;;;;;;;;;;;;;;-1.38;97.03;99466.46;1770235;80;20173;-66
2021/01/09 03:09:20;;;;;;;;;;;;;;;-1.36;97.16;99462.19;1761598;80;20554;-66
2021/01/09 03:11:47;;;;;;;;;;;;;;;-1.31;97.26;99454.07;1764796;80;21204;-66
2021/01/09 03:14:13;;;;;;;;;;;;;;;-1.28;97.22;99459.18;1764038;80;20952;-66
2021/01/09 03:16:40;;;;;;;;;;;;;;;-1.18;97.45;99462.55;1767472;80;20200;-66
2021/01/09 03:19:07;;;;;;;;;;;;;;;-1.20;97.16;99466.41;1766180;80;20312;-66
2021/01/09 03:21:34;;;;;;;;;;;;;;;-1.26;96.96;99466.44;1765138;80;20526;-66
2021/01/09 03:24:01;;;;;;;;;;;;;;;-1.30;96.96;99467.29;1771120;80;22673;-66
2021/01/09 03:26:28;;;;;;;;;;;;;;;-1.31;96.97;99465.59;1769633;80;20253;-66
2021/01/09 03:28:55;;;;;;;;;;;;;;;-1.36;96.87;99471.16;1763211;80;20252;-66
2021/01/09 03:31:24;;;;;;;;;;;;;;;-1.40;96.95;99468.16;1768988;80;20165;-66
2021/01/09 03:33:51;;;;;;;;;;;;;;;-1.39;97.09;99469.89;1769304;80;20230;-66
2021/01/09 03:36:17;;;;;;;;;;;;;;;-1.39;97.11;99472.45;1763187;80;21842;-66
2021/01/09 03:38:44;;;;;;;;;;;;;;;-1.37;97.22;99480.99;1762163;80;21118;-66
2021/01/09 03:41:10;;;;;;;;;;;;;;;-1.28;97.43;99475.83;1768848;80;20204;-66
2021/01/09 03:43:37;;;;;;;;;;;;;;;-1.20;97.47;99468.97;1762230;80;20240;-66
2021/01/09 03:46:04;;;;;;;;;;;;;;;-1.13;97.47;99473.20;1766571;80;20260;-66
2021/01/09 03:48:31;;;;;;;;;;;;;;;-1.08;97.43;99472.34;1761460;80;22595;-66
2021/01/09 03:50:57;;;;;;;;;;;;;;;-1.05;97.35;99467.20;1768572;80;20220;-66
2021/01/09 03:53:24;;;;;;;;;;;;;;;-1.02;97.38;99473.16;1769030;80;20492;-66
2021/01/09 03:55:50;;;;;;;;;;;;;;;-1.00;97.20;99473.17;1762427;80;20252;-66
2021/01/09 03:58:17;;;;;;;;;;;;;;;-0.98;97.29;99468.86;1769745;80;20242;-66
2021/01/09 04:00:44;;;;;;;;;;;;;;;-0.92;97.32;99472.27;1767846;80;21840;-66
2021/01/09 04:03:10;;;;;;;;;;;;;;;-0.91;97.21;99476.52;1738473;80;20139;-66
2021/01/09 04:05:38;;;;;;;;;;;;;;;-0.94;97.06;99472.70;1729101;81;20599;-66
2021/01/09 04:08:05;;;;;;;;;;;;;;;-0.99;96.90;99479.98;1727492;81;20561;-66
2021/01/09 04:10:32;;;;;;;;;;;;;;;-1.00;96.89;99479.58;1724006;81;20508;-66
2021/01/09 04:13:00;;;;;;;;;;;;;;;-0.97;97.07;99478.27;1726411;81;21407;-66
2021/01/09 04:15:28;;;;;;;;;;;;;;;-1.02;96.82;99481.28;1731693;81;20591;-66
2021/01/09 04:17:54;;;;;;;;;;;;;;;-1.01;97.01;99484.25;1728925;82;20313;-66
2021/01/09 04:20:21;;;;;;;;;;;;;;;-0.96;97.20;99485.09;1725886;81;20242;-66
2021/01/09 04:22:47;;;;;;;;;;;;;;;-0.92;97.18;99477.83;1728453;81;20286;-66
2021/01/09 04:25:14;;;;;;;;;;;;;;;-0.86;97.22;99486.77;1726641;81;21422;-66
2021/01/09 04:27:41;;;;;;;;;;;;;;;-0.83;97.25;99479.06;1722210;81;20590;-66
2021/01/09 04:30:09;;;;;;;;;;;;;;;-0.77;97.25;99484.15;1727146;81;20123;-66
2021/01/09 04:32:36;;;;;;;;;;;;;;;-0.73;97.29;99480.73;1733979;81;20238;-66
2021/01/09 04:35:05;;;;;;;;;;;;;;;-0.74;97.04;99481.56;1726811;81;20327;-66
2021/01/09 04:37:36;;;;;;;;;;;;;;;-0.84;96.66;99499.56;1726481;81;21395;-66
2021/01/09 04:40:03;;;;;;;;;;;;;;;-0.96;96.56;99491.06;1727568;81;21019;-66
2021/01/09 04:42:30;;;;;;;;;;;;;;;-1.01;96.71;99491.94;1726096;81;20519;-66
2021/01/09 04:44:57;;;;;;;;;;;;;;;-1.01;96.84;99497.07;1726518;81;20142;-66
2021/01/09 04:47:24;;;;;;;;;;;;;;;-1.03;96.85;99489.41;1728957;81;20242;-66
2021/01/09 04:49:51;;;;;;;;;;;;;;;-1.03;96.90;99492.41;1729961;81;21852;-66
2021/01/09 04:52:18;;;;;;;;;;;;;;;-0.98;97.16;99489.37;1728022;81;20544;-66
2021/01/09 04:54:46;;;;;;;;;;;;;;;-0.93;97.20;99493.61;1683207;83;20249;-66
2021/01/09 04:57:13;;;;;;;;;;;;;;;-0.95;97.02;99491.94;1685821;83;20645;-66
2021/01/09 04:59:40;;;;;;;;;;;;;;;-0.93;97.12;99499.17;1655534;85;20231;-66
2021/01/09 05:02:07;;;;;;;;;;;;;;;-0.88;97.17;99503.86;1652257;83;21296;-66
2021/01/09 05:04:35;;;;;;;;;;;;;;;-0.91;96.98;99504.72;1687151;83;20227;-66
2021/01/09 05:07:02;;;;;;;;;;;;;;;-0.94;96.84;99503.89;1717811;82;20215;-66
2021/01/09 05:09:29;;;;;;;;;;;;;;;-0.93;96.98;99506.86;1684036;84;20571;-66
2021/01/09 05:11:57;;;;;;;;;;;;;;;-0.87;97.21;99508.11;1704866;82;20140;-66
2021/01/09 05:14:28;;;;;;;;;;;;;;;-0.85;97.13;99510.25;1709909;83;21227;-66
2021/01/09 05:16:58;;;;;;;;;;;;;;;-0.85;97.01;99511.96;1715392;82;20144;-66
2021/01/09 05:19:29;;;;;;;;;;;;;;;-0.83;97.10;99513.66;1715969;82;20320;-66
2021/01/09 05:22:01;;;;;;;;;;;;;;;-0.85;96.97;99511.53;1700997;82;20615;-66
2021/01/09 05:24:28;;;;;;;;;;;;;;;-0.85;97.04;99508.97;1708360;83;20482;-66
2021/01/09 05:26:55;;;;;;;;;;;;;;;-0.84;97.04;99518.38;1710168;82;22019;-66
2021/01/09 05:29:22;;;;;;;;;;;;;;;-0.83;97.01;99520.08;1709643;83;20145;-66
2021/01/09 05:31:49;;;;;;;;;;;;;;;-0.81;97.05;99518.36;1706875;83;20241;-66
2021/01/09 05:34:15;;;;;;;;;;;;;;;-0.81;97.01;99520.92;1719357;82;20284;-66
2021/01/09 05:36:42;;;;;;;;;;;;;;;-0.85;96.90;99524.34;1686982;84;20254;-66
2021/01/09 05:39:09;;;;;;;;;;;;;;;-0.90;96.81;99526.07;1714978;82;20821;-66
2021/01/09 05:41:39;;;;;;;;;;;;;;;-0.87;97.00;99522.20;1759571;80;20147;-66
2021/01/09 05:44:08;;;;;;;;;;;;;;;-0.86;96.94;99522.66;1755744;80;20150;-66
2021/01/09 05:46:37;;;;;;;;;;;;;;;-0.86;97.04;99527.78;1756434;80;20154;-66
2021/01/09 05:49:05;;;;;;;;;;;;;;;-0.86;96.98;99525.22;1758299;80;20205;-66
2021/01/09 05:51:35;;;;;;;;;;;;;;;-0.88;96.93;99524.36;1753327;80;22003;-66
2021/01/09 05:54:02;;;;;;;;;;;;;;;-0.91;96.90;99532.91;1755328;80;20238;-66
2021/01/09 05:56:29;;;;;;;;;;;;;;;-0.91;96.92;99532.06;1757921;80;20371;-66
2021/01/09 05:58:56;;;;;;;;;;;;;;;-0.88;97.12;99528.20;1756812;80;20570;-66
2021/01/09 06:01:28;;;;;;;;;;;;;;;-0.86;97.08;99530.34;1753359;80;20245;-66
2021/01/09 06:04:06;;;;;;;;;;;;;;;-0.85;97.10;99535.87;1760740;80;21446;-66
2021/01/09 06:06:53;;;;;;;;;;;;;;;-0.88;96.92;99538.89;1768413;79;20256;-66
2021/01/09 06:09:21;;;;;;;;;;;;;;;-0.90;96.93;99544.02;1744669;81;20278;-66
2021/01/09 06:11:48;;;;;;;;;;;;;;;-0.96;96.86;99544.04;1764313;80;20232;-66
2021/01/09 06:14:15;;;;;;;;;;;;;;;-0.95;96.99;99543.20;1769582;80;20601;-66
2021/01/09 06:16:44;;;;;;;;;;;;;;;-0.91;97.14;99544.88;1765060;80;21212;-67
2021/01/09 06:19:11;;;;;;;;;;;;;;;-0.87;97.21;99549.13;1764477;80;20243;-66
2021/01/09 06:21:38;;;;;;;;;;;;;;;-0.83;97.25;99550.84;1768540;80;20219;-66
2021/01/09 06:24:06;;;;;;;;;;;;;;;-0.81;97.22;99552.97;1767018;80;20158;-67
2021/01/09 06:26:33;;;;;;;;;;;;;;;-0.87;96.89;99555.53;1769504;80;20318;-66
2021/01/09 06:29:07;;;;;;;;;;;;;;;-0.93;96.82;99560.25;1765000;80;21125;-67
2021/01/09 06:31:36;;;;;;;;;;;;;;;-0.99;96.80;99564.55;1767741;80;20115;-66
2021/01/09 06:34:04;;;;;;;;;;;;;;;-0.96;96.96;99564.55;1762474;80;20129;-66
2021/01/09 06:36:33;;;;;;;;;;;;;;;-1.00;96.82;99573.11;1741540;81;20248;-66
2021/01/09 06:39:02;;;;;;;;;;;;;;;-1.07;96.79;99571.41;1765036;80;20218;-67
2021/01/09 06:41:33;;;;;;;;;;;;;;;-1.13;96.79;99576.97;1766014;80;22093;-67
2021/01/09 06:44:04;;;;;;;;;;;;;;;-1.10;97.07;99573.98;1754798;81;20484;-66
2021/01/09 06:46:33;;;;;;;;;;;;;;;-1.07;97.13;99575.25;1767625;80;20281;-66
2021/01/09 06:49:01;;;;;;;;;;;;;;;-1.03;97.14;99573.13;1768394;80;20753;-66
2021/01/09 06:51:54;;;;;;;;;;;;;;;-0.98;97.26;99575.22;1768641;80;20229;-66
2021/01/09 06:54:27;;;;;;;;;;;;;;;-0.93;97.31;99579.91;1769952;80;22232;-66
2021/01/09 06:57:06;;;;;;;;;;;;;;;-0.88;97.35;99583.31;1762058;80;20151;-66
2021/01/09 06:59:35;;;;;;;;;;;;;;;-0.83;97.33;99579.47;1761750;80;20135;-66
2021/01/09 07:02:20;;;;;;;;;;;;;;;-0.85;97.10;99584.58;1763507;80;20795;-66
2021/01/09 07:04:53;;;;;;;;;;;;;;;-0.82;97.22;99585.01;1752600;80;20244;-66
2021/01/09 07:07:53;;;;;;;;;;;;;;;-0.78;97.25;99581.59;1759501;79;21196;-66
2021/01/09 07:10:28;;;;;;;;;;;;;;;-0.82;97.09;99588.42;1744176;81;20236;-66
2021/01/09 07:13:03;;;;;;;;;;;;;;;-0.80;97.14;99579.02;1760671;80;20695;-66
2021/01/09 07:15:32;;;;;;;;;;;;;;;-0.81;97.15;99590.14;1749226;80;21118;-66
2021/01/09 07:18:00;;;;;;;;;;;;;;;-0.81;97.08;99592.70;1759311;80;20230;-66
2021/01/09 07:20:36;;;;;;;;;;;;;;;-0.83;96.98;99594.41;1756553;80;21198;-66
2021/01/09 07:23:07;;;;;;;;;;;;;;;-0.85;97.03;99598.69;1755977;80;20133;-66
2021/01/09 07:25:40;;;;;;;;;;;;;;;-0.80;97.15;99596.12;1758406;80;20333;-66
2021/01/09 07:28:20;;;;;;;;;;;;;;;-0.81;97.11;99597.84;1759821;80;21077;-66
2021/01/09 07:31:02;;;;;;;;;;;;;;;-0.82;96.98;99599.95;1760559;80;20638;-66
2021/01/09 07:33:31;;;;;;;;;;;;;;;-0.78;97.11;99602.95;1759091;80;22120;-65
2021/01/09 07:35:59;;;;;;;;;;;;;;;-0.72;97.27;99602.92;1756900;80;20220;-66
2021/01/09 07:38:26;;;;;;;;;;;;;;;-0.65;97.19;99608.02;1755148;80;20626;-66
2021/01/09 07:41:00;;;;;;;;;;;;;;;-0.70;96.92;99608.91;1755862;80;20217;-66
2021/01/09 07:43:42;;;;;;;;;;;;;;;-0.64;97.10;99617.41;1755447;80;20244;-66
2021/01/09 07:46:30;;;;;;;;;;;;;;;-0.55;97.30;99612.27;1756094;81;21429;-66
2021/01/09 07:48:59;;;;;;;;;;;;;;;-0.47;97.35;99615.66;1761985;80;20495;-66
2021/01/09 07:51:51;;;;;;;;;;;;;;;-0.49;96.90;99617.37;1753513;80;20193;-66
2021/01/09 07:54:40;;;;;;;;;;;;;;;-0.56;96.62;99618.23;1754810;80;20655;-66
2021/01/09 07:57:20;;;;;;;;;;;;;;;-0.61;96.65;99622.55;1754514;80;20146;-66
2021/01/09 08:00:01;;;;;;;;;;;;;;;-0.57;96.98;99622.52;1747569;80;22177;-66
2021/01/09 08:02:41;;;;;;;;;;;;;;;-0.47;97.15;99622.07;1752187;80;20155;-66
2021/01/09 08:05:13;;;;;;;;;;;;;;;-0.43;97.09;99623.75;1758850;80;20244;-66
2021/01/09 08:07:46;;;;;;;;;;;;;;;-0.37;97.12;99627.56;1754126;80;21420;-66
2021/01/09 08:10:28;;;;;;;;;;;;;;;-0.38;97.01;99625.87;1754918;80;20502;-66
2021/01/09 08:13:06;;;;;;;;;;;;;;;-0.35;97.03;99623.28;1760752;80;21150;-66
2021/01/09 08:15:35;;;;;;;;;;;;;;;-0.30;97.07;99620.71;1756163;80;20472;-66
2021/01/09 08:18:05;;;;;;;;;;;;;;;-0.23;97.15;99627.50;1757136;80;20174;-66
2021/01/09 08:20:32;;;;;;;;;;;;;;;-0.15;97.22;99626.19;1754923;80;20233;-66
2021/01/09 08:23:04;;;;;;;;;;;;;;;-0.09;97.19;99632.56;1761119;80;20129;-66
2021/01/09 08:25:34;;;;;;;;;;;;;;;-0.02;97.21;99636.81;1760359;80;21309;-66
2021/01/09 08:28:03;;;;;;;;;;;;;;;0.09;97.22;99634.19;1755285;80;20185;-66
2021/01/09 08:30:32;;;;;;;;;;;;;;;0.17;97.22;99638.41;1720002;82;20275;-66
2021/01/09 08:33:08;;;;;;;;;;;;;;;0.24;97.10;99640.93;1717194;82;20289;-66
2021/01/09 08:35:39;;;;;;;;;;;;;;;0.26;96.92;99640.06;1702319;82;20231;-66
2021/01/09 08:38:06;;;;;;;;;;;;;;;0.24;96.66;99640.93;1710663;82;22370;-66
2021/01/09 08:40:33;;;;;;;;;;;;;;;0.25;96.73;99638.77;1698691;82;20235;-66
2021/01/09 08:43:03;;;;;;;;;;;;;;;0.31;96.85;99652.85;1710028;82;20318;-66
2021/01/09 08:45:47;;;;;;;;;;;;;;;0.31;96.63;99650.28;1717687;82;20800;-65
2021/01/09 08:48:29;;;;;;;;;;;;;;;0.36;96.70;99652.39;1705267;82;20191;-66
2021/01/09 08:51:02;;;;;;;;;;;;;;;0.42;96.87;99653.62;1712063;82;21162;-66
2021/01/09 08:56:14;;;;;;;21.77;14.38;;;;;;;0.50;96.51;99659.56;1791459;77;22700;-66
2021/01/09 08:58:42;;;;;;;22.27;15.55;;;;;;;0.37;96.16;99660.54;1740566;80;21033;-65
2021/01/09 09:01:17;;;;;;;26.07;15.38;;;;;;;0.27;95.97;99661.45;1733140;80;21210;-65
2021/01/09 09:03:51;;;;;;;26.90;17.10;;;;;;;0.27;96.25;99669.16;1744542;80;20929;-65
2021/01/09 09:06:23;;;;;;;24.30;16.45;;;;;;;0.18;96.03;99668.34;1716202;82;21618;-65
2021/01/09 09:08:52;;;;;;;23.15;15.70;;;;;;;0.13;96.03;99667.52;1686262;83;21026;-65
2021/01/09 09:11:24;;;;;;;19.73;11.88;;;;;;;0.10;96.10;99670.11;1729894;81;21045;-64
2021/01/09 09:14:10;;;;;;;19.90;13.30;;;;;;;0.06;96.01;99676.13;1707415;81;21214;-65
2021/01/09 09:16:39;;;;;;;15.75;11.93;;;;;;;0.03;96.05;99673.59;1739178;81;21088;-64
2021/01/09 09:19:18;;;;;;;16.37;10.50;;;;;;;-0.01;96.04;99674.44;1706939;83;21007;-64
2021/01/09 09:21:48;;;;;;;17.17;12.07;;;;;;;-0.04;96.03;99674.46;1733479;81;21403;-64
2021/01/09 09:24:17;;;;;;;14.45;9.78;;;;;;;-0.05;96.15;99674.90;1734132;81;20981;-64
2021/01/09 09:26:44;;;;;;;;;;;;;;;-0.02;96.27;99670.18;1712679;81;21481;-64
2021/01/09 09:29:16;;;;;;;14.68;10.88;;;;;;;0.04;96.24;99677.84;1731007;80;20301;-64
2021/01/09 09:31:43;;;;;;;14.28;8.90;;;;;;;0.06;96.28;99676.13;1704566;82;21039;-64
2021/01/09 09:34:16;;;;;;;13.50;9.70;;;;;;;0.08;96.25;99673.10;1707496;83;21215;-65
2021/01/09 09:36:57;;;;;;;15.68;9.60;;;;;;;0.12;96.25;99676.09;1731880;81;21115;-64
2021/01/09 09:39:27;;;;;;;13.30;9.38;;;;;;;0.16;96.28;99675.20;1701744;83;21946;-65
2021/01/09 09:42:00;;;;;;;12.68;7.95;;;;;;;0.21;96.31;99670.89;1700983;83;21009;-65
2021/01/09 09:44:41;;;;;;;11.43;8.63;;;;;;;0.26;96.20;99676.45;1704915;81;21190;-66
2021/01/09 09:47:24;;;;;;;9.15;7.15;;;;;;;0.27;96.13;99669.16;1714620;81;21229;-66
2021/01/09 09:49:51;;;;;;;8.65;7.05;;;;;;;0.32;95.98;99664.84;1727858;81;21075;-65
2021/01/09 09:52:22;;;;;;;7.90;6.58;;;;;;;0.23;95.72;99660.63;1702970;83;21682;-65
2021/01/09 09:55:06;;;;;;;10.20;7.22;;;;;;;0.25;95.87;99663.17;1728459;81;21139;-64
2021/01/09 09:57:33;;;;;;;9.03;7.15;;;;;;;0.34;96.22;99665.70;1700724;83;21060;-64
2021/01/09 10:00:12;;;;;;;8.28;6.70;;;;;;;0.47;96.25;99655.73;1731784;81;20999;-63
2021/01/09 10:02:57;;;;;;;7.35;6.15;;;;;;;0.57;96.15;99650.95;1695130;82;21816;-64
2021/01/09 10:05:26;;;;;;;6.72;5.90;;;;;;;0.66;95.82;99653.45;1704786;83;21101;-63
2021/01/09 10:08:15;;;;;;;9.23;6.28;;;;;;;0.58;95.50;99655.22;1729528;81;21561;-64
2021/01/09 10:10:43;;;;;;;12.35;7.30;;;;;;;0.62;95.70;99651.78;1631315;86;21179;-65
2021/01/09 10:13:11;;;;;;;9.25;6.40;;;;;;;0.79;95.99;99657.22;1687954;83;21314;-63
2021/01/09 10:15:37;;;;;;;7.33;6.25;;;;;;;0.91;95.81;99656.25;1691613;83;21182;-63
2021/01/09 10:18:05;;;;;;;8.63;6.53;;;;;;;0.82;95.08;99652.05;1687974;83;21263;-64
2021/01/09 10:20:32;;;;;;;;;;;;;;;0.77;95.12;99657.66;1687507;83;21163;-64
2021/01/09 10:22:59;;;;;;;9.13;6.78;;;;;;;0.76;95.37;99648.25;1689465;83;20660;-65
2021/01/09 10:25:27;;;;;;;8.13;6.47;;;;;;;0.75;95.38;99649.09;1686912;83;21644;-66
2021/01/09 10:27:54;;;;;;;9.80;7.95;;;;;;;0.75;95.13;99659.38;1690397;83;21163;-65
2021/01/09 10:30:21;;;;;;;8.70;6.60;;;;;;;0.75;95.51;99643.95;1689975;83;21679;-65
2021/01/09 10:32:49;;;;;;;8.15;7.05;;;;;;;0.92;95.89;99651.52;1691218;83;25518;-64
2021/01/09 10:35:16;;;;;;;9.68;7.45;;;;;;;1.01;95.67;99644.59;1693482;83;21322;-63
2021/01/09 10:37:43;;;;;;;9.20;7.33;;;;;;;1.02;95.30;99651.42;1689524;83;21261;-65
2021/01/09 10:40:13;;;;;;;11.38;7.70;;;;;;;1.09;95.55;99647.06;1693024;82;21202;-65
2021/01/09 10:42:40;;;;;;;8.70;7.17;;;;;;;1.09;95.55;99647.06;1692014;83;22289;-64
2021/01/09 10:45:11;;;;;;;10.78;6.85;;;;;;;1.14;95.46;99651.73;1729974;80;28361;-65
2021/01/09 10:47:38;;;;;;;9.95;8.13;;;;;;;1.18;95.36;99648.72;1757055;80;21144;-65
2021/01/09 10:50:07;;;;;;;;;;;;;;;1.05;94.69;99646.25;1765139;79;21449;-65
2021/01/09 10:52:34;;;;;;;8.33;7.50;;;;;;;0.98;95.04;99647.19;1759795;80;20223;-65
2021/01/09 10:55:02;;;;;;;9.05;7.70;;;;;;;1.03;95.36;99649.26;1757639;79;21322;-65
2021/01/09 10:57:29;;;;;;;9.20;7.70;;;;;;;1.04;95.32;99644.55;1767937;78;21195;-65
2021/01/09 10:59:57;;;;;;;9.63;8.30;;;;;;;1.03;95.30;99640.26;1770860;78;26217;-65
2021/01/09 11:02:23;;;;;;;10.68;8.35;;;;;;;1.14;95.52;99647.02;1763728;80;21674;-65
2021/01/09 11:05:09;;;;;;;9.23;7.72;;;;;;;1.15;95.26;99646.14;1764509;80;21135;-64
2021/01/09 11:07:49;;;;;;;9.95;7.78;;;;;;;1.22;95.46;99640.93;1765434;78;21270;-65
2021/01/09 11:10:17;;;;;;;8.55;7.50;;;;;;;1.29;95.31;99640.45;1763373;78;20973;-65
2021/01/09 11:12:47;;;;;;;9.90;7.72;;;;;;;1.28;95.14;99647.73;1769230;78;21657;-65
2021/01/09 11:15:22;;;;;;;10.43;7.75;;;;;;;1.22;94.88;99646.52;1768887;78;21219;-65
2021/01/09 11:17:49;;;;;;;10.50;8.28;;;;;;;1.15;95.04;99646.14;1768109;78;21282;-64
2021/01/09 11:20:16;;;;;;;15.53;8.95;;;;;;;1.17;95.09;99652.13;1768931;80;21666;-64
2021/01/09 11:22:43;;;;;;;13.45;9.40;;;;;;;1.17;95.27;99649.56;1771066;78;21009;-63
2021/01/09 11:25:11;;;;;;;12.73;8.58;;;;;;;1.26;95.44;99657.17;1772576;80;21245;-63
2021/01/09 11:27:38;;;;;;;8.83;7.60;;;;;;;1.13;94.82;99660.76;1765313;78;21128;-64
2021/01/09 11:30:07;;;;;;;10.98;7.62;;;;;;;0.96;94.79;99656.63;1763744;80;21187;-64
2021/01/09 11:32:34;;;;;;;11.28;7.20;;;;;;;0.91;95.11;99658.38;1772800;80;21371;-64
2021/01/09 11:35:02;;;;;;;11.90;7.58;;;;;;;0.94;95.46;99659.64;1765447;80;21237;-65
2021/01/09 11:37:28;;;;;;;;;;;;;;;0.85;95.09;99663.59;1771326;80;21151;-63
2021/01/09 11:39:56;;;;;;;8.75;7.10;;;;;;;0.79;95.07;99662.36;1778668;78;20131;-65
2021/01/09 11:42:23;;;;;;;10.85;8.18;;;;;;;0.73;95.24;99668.81;1771859;80;21277;-65
2021/01/09 11:44:50;;;;;;;9.00;7.95;;;;;;;0.70;95.38;99658.56;1768641;80;21738;-65
2021/01/09 11:47:17;;;;;;;11.88;8.90;;;;;;;0.78;95.70;99667.06;1771703;78;21076;-65
2021/01/09 11:49:45;;;;;;;10.25;8.25;;;;;;;0.87;95.82;99659.30;1775695;78;21155;-64
2021/01/09 11:52:14;;;;;;;11.28;8.53;;;;;;;0.90;95.62;99656.69;1752234;79;21546;-65
2021/01/09 11:54:41;;;;;;;11.12;8.50;;;;;;;0.86;95.27;99657.56;1773990;80;21238;-65
2021/01/09 11:57:08;;;;;;;10.58;9.23;;;;;;;0.70;94.80;99663.70;1772093;80;21854;-62
2021/01/09 11:59:37;;;;;;;12.98;10.18;;;;;;;0.58;95.20;99657.79;1763392;79;21065;-63
2021/01/09 12:02:07;;;;;;;11.40;9.63;;;;;;;0.56;95.53;99656.97;1762862;80;21069;-62
2021/01/09 12:04:34;;;;;;;11.35;9.25;;;;;;;0.66;95.79;99667.58;1770455;78;21076;-64
2021/01/09 12:07:01;;;;;;;14.43;10.90;;;;;;;0.69;95.75;99659.44;1771998;78;21171;-63
2021/01/09 12:09:29;;;;;;;12.55;10.25;;;;;;;0.71;95.58;99665.42;1781398;78;21222;-63
2021/01/09 12:11:56;;;;;;;12.53;10.28;;;;;;;0.71;95.73;99668.84;1757084;78;22990;-63
2021/01/09 12:14:24;;;;;;;14.47;11.88;;;;;;;0.71;95.55;99667.99;1759685;79;21191;-62
2021/01/09 12:16:52;;;;;;;14.30;10.58;;;;;;;0.61;95.36;99669.33;1761540;79;21167;-64
2021/01/09 12:19:24;;;;;;;14.95;11.22;;;;;;;0.57;95.49;99666.37;1772255;79;21183;-64
2021/01/09 12:21:52;;;;;;;15.60;11.20;;;;;;;0.56;95.53;99664.69;1712450;83;21171;-63
2021/01/09 12:24:20;;;;;;;17.05;12.03;;;;;;;0.57;95.53;99671.52;1725573;81;21003;-63
2021/01/09 12:26:54;;;;;;;14.95;11.53;;;;;;;0.57;95.63;99674.08;1718530;81;21094;-62
2021/01/09 12:29:23;;;;;;;16.37;12.03;;;;;;;0.66;96.07;99671.44;1724240;81;21084;-62
2021/01/09 12:31:50;;;;;;;13.80;10.85;;;;;;;0.78;96.16;99667.06;1699091;82;21236;-62
2021/01/09 12:34:18;;;;;;;12.47;9.65;;;;;;;0.81;95.76;99672.17;1719333;83;21663;-63
2021/01/09 12:36:52;;;;;;;12.73;9.80;;;;;;;0.81;95.83;99674.74;1695495;81;21576;-63
2021/01/09 12:39:20;;;;;;;14.30;9.58;;;;;;;0.77;95.47;99686.77;1726093;81;21104;-63
2021/01/09 12:41:47;;;;;;;14.43;10.63;;;;;;;0.64;95.47;99686.03;1710950;82;21087;-63